Time;durP1;ratioP1;P1;durP2;ratioP2;P2;SDS_P1;SDS_P2;PMS_P1;PMS_P2;Temp;Humidity;BMP_temperature;BMP_pressure;BME280_temperature;BME280_humidity;BME280_pressure;Samples;Min_cycle;Max_cycle;Signal;HPM_P1;HPM_P2
2022/04/10 07:16:30;;;;;;;14.73;6.30;;;;;;;4.43;73.52;100394.80;1809644;77;28727;-67
2022/04/10 07:18:56;;;;;;;15.98;5.83;;;;;;;4.62;73.35;100386.63;1804142;78;20946;-67
2022/04/10 07:23:41;;;;;;;10.85;4.75;;;;;;;4.78;73.17;100388.31;1800861;78;21225;-67
2022/04/10 07:23:50;;;;;;;13.35;5.62;;;;;;;4.68;72.93;100391.40;1801406;78;21065;-67
2022/04/10 07:26:16;;;;;;;19.95;6.40;;;;;;;4.64;72.72;100394.79;1796168;78;20970;-67
2022/04/10 07:28:42;;;;;;;14.47;4.58;;;;;;;4.69;72.49;100397.01;1793314;78;21012;-67
2022/04/10 07:31:09;;;;;;;13.15;5.10;;;;;;;4.72;72.34;100400.70;1801497;78;21003;-67
2022/04/10 07:33:35;;;;;;;18.95;5.67;;;;;;;4.59;72.11;100401.42;1795898;78;21156;-67
2022/04/10 07:36:02;;;;;;;14.58;5.30;;;;;;;4.45;71.99;100405.24;1796748;78;21498;-67
2022/04/10 07:38:28;;;;;;;11.22;5.30;;;;;;;4.40;71.91;100409.59;1805719;78;20989;-67
2022/04/10 07:40:54;;;;;;;14.13;5.95;;;;;;;4.36;71.79;100413.95;1803010;78;20999;-67
2022/04/10 07:43:20;;;;;;;22.62;8.45;;;;;;;4.36;71.71;100414.77;1802844;78;20906;-67
2022/04/10 07:48:31;;;;;;;21.85;7.40;;;;;;;4.28;71.53;100417.23;1796556;78;20990;-67
2022/04/10 07:50:57;;;;;;;21.65;7.10;;;;;;;4.32;71.41;100421.30;1798969;78;21061;-67
2022/04/10 07:53:24;;;;;;;22.62;6.95;;;;;;;4.25;71.29;100425.42;1795726;78;21094;-67
2022/04/10 07:55:50;;;;;;;20.15;6.12;;;;;;;4.28;71.22;100421.20;1801288;78;21045;-67
2022/04/10 07:58:16;;;;;;;14.45;6.35;;;;;;;4.31;71.15;100422.25;1806595;78;21142;-66
2022/04/10 08:00:42;;;;;;;16.27;5.47;;;;;;;4.36;71.04;100425.84;1801412;78;21006;-67
2022/04/10 08:03:08;;;;;;;20.27;6.45;;;;;;;4.27;70.92;100423.47;1799876;78;21053;-67
2022/04/10 08:05:34;;;;;;;15.72;3.85;;;;;;;4.22;70.83;100433.56;1778426;78;21018;-67
2022/04/10 08:08:01;;;;;;;15.70;5.53;;;;;;;4.18;70.73;100437.45;1762503;80;21052;-66
2022/04/10 08:10:29;;;;;;;16.97;5.20;;;;;;;4.17;70.65;100430.50;1769754;80;21805;-67
2022/04/10 08:12:55;;;;;;;19.07;6.42;;;;;;;4.20;70.55;100443.43;1750773;80;21010;-67
2022/04/10 08:15:21;;;;;;;21.57;7.03;;;;;;;4.24;70.46;100440.89;1786611;80;21046;-67
2022/04/10 08:17:47;;;;;;;29.65;11.85;;;;;;;4.30;70.33;100444.33;1786187;80;20883;-67
2022/04/10 08:20:13;;;;;;;12.82;4.62;;;;;;;4.32;70.19;100445.53;1786417;80;21086;-67
2022/04/10 08:22:39;;;;;;;10.88;3.62;;;;;;;4.33;70.06;100454.63;1786850;80;21106;-67
2022/04/10 08:25:09;;;;;;;26.85;7.92;;;;;;;4.35;69.92;100447.44;1786869;80;21518;-67
2022/04/10 08:27:36;;;;;;;15.08;6.12;;;;;;;4.37;69.78;100449.45;1786286;80;21490;-67
2022/04/10 08:30:07;;;;;;;25.62;8.75;;;;;;;4.52;69.68;100456.56;1786257;80;20995;-67
2022/04/10 08:32:37;;;;;;;25.37;9.00;;;;;;;4.72;69.59;100462.78;1786202;80;20991;-67
2022/04/10 08:35:04;;;;;;;16.65;6.10;;;;;;;4.88;69.45;100463.16;1786029;80;21846;-67
2022/04/10 08:37:30;;;;;;;22.87;8.15;;;;;;;4.89;69.17;100464.84;1786332;80;21007;-67
2022/04/10 08:39:56;;;;;;;19.20;6.20;;;;;;;4.87;68.96;100468.08;1785892;80;21039;-67
2022/04/10 08:42:22;;;;;;;21.17;8.93;;;;;;;4.84;68.70;100464.38;1785799;80;21483;-67
2022/04/10 08:44:48;;;;;;;18.12;6.97;;;;;;;4.86;68.52;100463.75;1786256;80;21013;-67
2022/04/10 08:47:20;;;;;;;14.28;5.80;;;;;;;4.89;68.30;100472.77;1785800;80;21436;-67
2022/04/10 08:49:44;;;;;;;13.30;5.05;;;;;;;4.97;68.18;100481.69;1785902;80;20988;-67
2022/04/10 08:52:10;;;;;;;25.27;10.88;;;;;;;5.04;68.05;100483.31;1786281;80;21031;-67
2022/04/10 08:54:36;;;;;;;17.98;7.30;;;;;;;5.06;67.91;100479.23;1786257;80;21590;-67
2022/04/10 08:57:03;;;;;;;13.15;3.80;;;;;;;5.12;67.82;100474.25;1786201;80;21003;-67
2022/04/10 08:59:29;;;;;;;9.20;3.90;;;;;;;5.27;67.74;100476.05;1786346;80;21265;-67
2022/04/10 09:01:56;;;;;;;10.80;3.40;;;;;;;5.34;67.61;100482.47;1786063;80;21306;-67
2022/04/10 09:04:23;;;;;;;39.05;19.20;;;;;;;5.39;67.50;100480.24;1786332;80;21038;-67
2022/04/10 09:06:59;;;;;;;46.18;24.12;;;;;;;5.64;67.45;100475.78;1786334;80;20996;-67
2022/04/10 09:09:25;;;;;;;28.05;11.22;;;;;;;5.98;67.33;100476.29;1785926;80;20988;-67
2022/04/10 09:11:53;;;;;;;17.35;6.37;;;;;;;6.28;67.22;100472.16;1786132;80;21176;-67
2022/04/10 09:14:40;;;;;;;14.15;4.33;;;;;;;6.42;67.01;100470.41;1786073;80;20986;-67
2022/04/10 09:17:29;;;;;;;10.15;3.83;;;;;;;6.57;66.82;100474.78;1750456;79;21074;-68
2022/04/10 09:19:53;;;;;;;13.18;3.77;;;;;;;6.69;66.46;100476.75;1756710;80;21046;-68
2022/04/10 09:22:29;;;;;;;9.93;3.90;;;;;;;6.70;66.05;100462.05;1785477;80;21038;-67
2022/04/10 09:25:11;;;;;;;16.05;3.50;;;;;;;6.58;65.68;100463.70;1786186;80;21839;-67
2022/04/10 09:27:39;;;;;;;14.40;3.72;;;;;;;6.69;65.47;100466.16;1776762;80;21023;-67
2022/04/10 09:30:09;;;;;;;8.73;2.80;;;;;;;6.73;65.05;100466.22;1786375;80;20987;-67
2022/04/10 09:32:51;;;;;;;15.63;3.20;;;;;;;6.70;64.75;100462.53;1785498;80;20990;-68
2022/04/10 09:35:22;;;;;;;9.63;3.15;;;;;;;6.70;64.63;100461.21;1785519;80;21505;-67
2022/04/10 09:37:52;;;;;;;9.38;2.92;;;;;;;6.59;64.10;100457.40;1786058;80;21138;-67
2022/04/10 09:40:32;;;;;;;8.00;2.45;;;;;;;6.40;63.85;100456.45;1784710;80;21014;-67
2022/04/10 09:43:10;;;;;;;10.70;3.30;;;;;;;6.15;63.60;100460.19;1786020;80;21042;-68
2022/04/10 09:45:44;;;;;;;7.92;2.92;;;;;;;6.06;63.43;100458.36;1786196;80;21546;-67
2022/04/10 09:48:23;;;;;;;11.00;3.08;;;;;;;5.94;63.22;100456.37;1785815;80;21078;-67
2022/04/10 09:50:52;;;;;;;8.43;3.10;;;;;;;5.94;63.13;100466.47;1786201;80;21866;-68
2022/04/10 09:53:19;;;;;;;10.13;5.07;;;;;;;6.19;63.06;100469.05;1783884;80;21483;-67
2022/04/10 09:55:48;;;;;;;13.05;5.58;;;;;;;6.47;63.00;100473.97;1786042;80;20987;-67
2022/04/10 09:58:14;;;;;;;18.37;6.33;;;;;;;6.70;62.87;100459.89;1755592;80;21047;-67
2022/04/10 10:00:46;;;;;;;8.13;2.60;;;;;;;6.79;62.73;100467.80;1785578;80;21451;-67
2022/04/10 10:03:12;;;;;;;5.95;2.87;;;;;;;6.88;62.53;100466.11;1786117;80;21188;-68
2022/04/10 10:05:38;;;;;;;11.60;3.55;;;;;;;6.78;62.37;100475.43;1755054;80;21394;-67
2022/04/10 10:08:06;;;;;;;11.68;4.08;;;;;;;6.64;62.19;100465.77;1786129;80;21077;-68
2022/04/10 10:10:35;;;;;;;9.85;3.77;;;;;;;6.51;62.05;100469.55;1786090;80;21460;-67
2022/04/10 10:13:10;;;;;;;17.02;4.42;;;;;;;6.33;61.91;100479.18;1786182;80;20998;-67
2022/04/10 10:15:36;;;;;;;16.48;6.62;;;;;;;6.23;61.83;100483.66;1784584;80;21154;-68
2022/04/10 10:18:05;;;;;;;9.08;3.10;;;;;;;6.05;61.75;100485.35;1774384;80;21469;-67
2022/04/10 10:20:31;;;;;;;12.88;4.20;;;;;;;5.81;61.72;100492.79;1774695;80;21066;-67
2022/04/10 10:23:00;;;;;;;5.53;2.77;;;;;;;5.72;61.81;100492.30;1763712;79;20985;-67
2022/04/10 10:26:05;;;;;;;12.78;4.45;;;;;;;5.84;61.88;100490.70;1759199;79;21105;-67
2022/04/10 10:29:10;;;;;;;9.28;4.25;;;;;;;6.04;61.94;100490.29;1759095;79;22066;-68
2022/04/10 10:32:02;;;;;;;13.62;4.65;;;;;;;6.23;61.95;100479.68;1761272;79;21456;-67
2022/04/10 10:34:28;;;;;;;15.03;4.28;;;;;;;6.37;62.04;100480.58;1763277;79;21795;-67
2022/04/10 10:36:54;;;;;;;14.18;4.55;;;;;;;6.47;62.05;100479.27;1757598;79;21541;-67
2022/04/10 10:39:21;;;;;;;21.05;7.75;;;;;;;6.49;62.03;100474.64;1761277;79;21093;-67
2022/04/10 10:41:52;;;;;;;11.73;4.90;;;;;;;6.55;62.04;100475.39;1760990;79;21127;-67
2022/04/10 10:44:29;;;;;;;18.85;6.05;;;;;;;6.58;62.03;100471.64;1766160;79;21020;-67
2022/04/10 10:47:02;;;;;;;14.98;4.20;;;;;;;6.53;62.05;100470.25;1757133;79;21023;-67
2022/04/10 10:49:30;;;;;;;13.62;3.25;;;;;;;6.67;62.08;100458.37;1771937;79;21017;-67
2022/04/10 10:51:56;;;;;;;8.05;3.02;;;;;;;6.74;62.04;100463.44;1762456;79;21060;-67
2022/04/10 10:54:35;;;;;;;10.53;3.80;;;;;;;6.95;62.07;100459.25;1758847;79;21463;-68
2022/04/10 10:57:38;;;;;;;6.78;2.25;;;;;;;7.19;62.06;100459.56;1766636;79;20995;-67
2022/04/10 11:00:14;;;;;;;14.73;3.90;;;;;;;7.38;61.90;100456.83;1763577;79;21042;-67
2022/04/10 11:02:46;;;;;;;20.72;5.53;;;;;;;7.84;61.77;100449.69;1756556;79;21042;-67
2022/04/10 11:05:35;;;;;;;11.18;3.52;;;;;;;8.11;61.52;100445.62;1741887;79;21041;-67
2022/04/10 11:08:05;;;;;;;10.18;3.87;;;;;;;7.93;60.85;100454.08;1755768;79;21991;-67
2022/04/10 11:10:34;;;;;;;11.63;4.40;;;;;;;7.90;60.61;100454.39;1764264;79;21547;-67
2022/04/10 11:13:07;;;;;;;9.60;3.13;;;;;;;7.95;60.39;100452.12;1762343;79;21515;-67
2022/04/10 11:15:36;;;;;;;10.38;4.20;;;;;;;7.99;60.24;100442.84;1764535;79;21058;-67
2022/04/10 11:18:26;;;;;;;12.80;4.37;;;;;;;8.13;60.04;100436.99;1742789;79;21011;-68
2022/04/10 11:20:54;;;;;;;12.37;4.47;;;;;;;8.07;59.79;100445.58;1754475;80;21275;-68
2022/04/10 11:23:20;;;;;;;6.70;1.80;;;;;;;8.00;59.69;100449.34;1755788;79;21032;-67
2022/04/10 11:25:53;;;;;;;12.03;4.45;;;;;;;7.89;59.56;100447.40;1752552;80;20923;-68
2022/04/10 11:28:19;;;;;;;10.80;3.30;;;;;;;7.80;59.47;100443.84;1754312;79;21010;-68
2022/04/10 11:30:46;;;;;;;8.63;2.92;;;;;;;7.78;59.42;100446.29;1728738;80;21003;-67
2022/04/10 11:33:13;;;;;;;11.97;4.70;;;;;;;7.85;59.38;100442.05;1760064;79;22070;-68
2022/04/10 11:35:43;;;;;;;13.40;5.15;;;;;;;7.93;59.33;100449.61;1747363;79;20987;-67
2022/04/10 11:38:17;;;;;;;16.85;4.42;;;;;;;8.06;59.26;100447.89;1748873;79;21090;-67
2022/04/10 11:40:50;;;;;;;14.33;4.47;;;;;;;8.04;59.11;100451.20;1754605;79;21019;-68
2022/04/10 11:43:21;;;;;;;7.05;2.10;;;;;;;7.91;58.94;100448.10;1750130;79;21019;-68
2022/04/10 11:45:56;;;;;;;27.80;7.83;;;;;;;7.83;58.82;100445.36;1752195;79;21777;-67
2022/04/10 11:48:24;;;;;;;11.20;3.40;;;;;;;7.96;58.83;100444.48;1759387;80;20988;-67
2022/04/10 11:50:50;;;;;;;8.50;2.95;;;;;;;8.09;58.72;100438.31;1776858;80;21117;-68
2022/04/10 11:53:16;;;;;;;13.05;4.42;;;;;;;8.21;58.63;100446.86;1755999;80;20944;-68
2022/04/10 11:55:44;;;;;;;8.35;2.85;;;;;;;8.32;58.54;100440.84;1753513;80;20908;-68
2022/04/10 11:58:21;;;;;;;7.15;3.22;;;;;;;8.46;58.42;100434.98;1753769;80;21627;-68
2022/04/10 12:00:56;;;;;;;12.40;4.22;;;;;;;8.59;58.34;100431.89;1772953;80;20995;-68
2022/04/10 12:03:24;;;;;;;7.62;2.98;;;;;;;8.81;58.17;100430.53;1772529;80;21019;-68
2022/04/10 12:05:50;;;;;;;25.37;6.97;;;;;;;8.92;57.99;100420.95;1776208;80;21062;-69
2022/04/10 12:08:19;;;;;;;20.60;9.95;;;;;;;8.93;57.75;100429.28;1757677;80;21534;-68
2022/04/10 12:10:57;;;;;;;9.93;3.50;;;;;;;9.01;57.64;100423.98;1726382;80;21054;-69
2022/04/10 12:13:37;;;;;;;14.55;4.80;;;;;;;9.11;57.39;100430.04;1770018;80;21034;-68
2022/04/10 12:16:18;;;;;;;21.52;8.78;;;;;;;9.17;57.08;100423.23;1762405;80;21674;-68
2022/04/10 12:18:51;;;;;;;23.62;7.50;;;;;;;9.20;56.82;100425.57;1759436;80;20980;-68
2022/04/10 12:21:18;;;;;;;25.30;9.20;;;;;;;9.01;56.36;100425.31;1764053;81;21075;-69
2022/04/10 12:23:45;;;;;;;21.12;7.37;;;;;;;8.70;55.84;100429.47;1749792;80;21062;-68
2022/04/10 12:26:11;;;;;;;9.05;4.35;;;;;;;8.39;55.11;100414.00;1746013;82;21114;-68
2022/04/10 12:28:38;;;;;;;13.53;6.70;;;;;;;8.31;54.81;100427.70;1745933;82;21044;-68
2022/04/10 12:31:04;;;;;;;25.15;10.10;;;;;;;8.31;54.59;100428.55;1753765;80;21029;-68
2022/04/10 12:33:30;;;;;;;68.57;26.12;;;;;;;8.31;54.40;100423.72;1775562;80;21062;-68
2022/04/10 12:35:56;;;;;;;27.45;10.82;;;;;;;8.30;54.28;100425.53;1780022;80;21188;-68
2022/04/10 12:38:28;;;;;;;30.17;12.65;;;;;;;8.33;54.22;100418.61;1748580;82;20923;-68
2022/04/10 12:41:06;;;;;;;20.15;8.53;;;;;;;8.36;54.11;100421.45;1725769;83;21102;-68
2022/04/10 12:43:32;;;;;;;59.40;21.85;;;;;;;8.63;54.11;100423.95;1700295;83;21071;-68
2022/04/10 12:46:12;;;;;;;52.70;23.12;;;;;;;8.76;54.00;100421.69;1707250;82;21072;-68
2022/04/10 12:48:38;;;;;;;45.35;17.52;;;;;;;8.51;53.78;100435.33;1715532;82;21161;-68
2022/04/10 12:51:12;;;;;;;41.68;16.27;;;;;;;7.85;53.56;100444.70;1717083;82;21000;-68
2022/04/10 12:53:38;;;;;;;13.32;5.87;;;;;;;7.27;53.78;100450.87;1716547;82;21059;-68
2022/04/10 12:56:05;;;;;;;11.03;5.05;;;;;;;6.82;54.16;100462.72;1722928;82;21057;-68
2022/04/10 12:58:48;;;;;;;10.68;3.85;;;;;;;6.56;54.59;100469.61;1733028;82;21093;-69
2022/04/10 13:01:27;;;;;;;7.10;2.83;;;;;;;6.33;54.99;100465.94;1732585;82;21158;-68
2022/04/10 13:03:58;;;;;;;15.85;5.78;;;;;;;6.19;55.41;100466.41;1733493;82;21586;-68
2022/04/10 13:06:26;;;;;;;13.38;6.00;;;;;;;6.13;55.81;100465.61;1730681;82;21341;-68
2022/04/10 13:08:49;;;;;;;9.68;3.35;;;;;;;6.27;56.15;100440.03;1732870;82;21015;-68
2022/04/10 13:11:15;;;;;;;20.62;9.65;;;;;;;6.46;56.41;100440.02;1733371;82;21015;-68
2022/04/10 13:14:00;;;;;;;8.75;3.45;;;;;;;6.69;56.68;100434.36;1732828;82;21121;-68
2022/04/10 13:16:31;;;;;;;6.40;3.25;;;;;;;6.90;56.82;100432.33;1732987;82;20995;-68
2022/04/10 13:19:08;;;;;;;;;;;;;;;7.03;56.95;100430.20;1735593;82;21553;-68
2022/04/10 13:21:37;;;;;;;10.85;3.98;;;;;;;7.26;57.04;100435.45;1733408;82;20125;-68
2022/04/10 13:24:04;;;;;;;12.40;3.80;;;;;;;7.57;57.12;100428.48;1732406;82;21523;-68
2022/04/10 13:26:32;;;;;;;7.47;2.60;;;;;;;7.75;57.04;100424.03;1733219;82;21141;-68
2022/04/10 13:29:03;;;;;;;10.58;3.80;;;;;;;7.80;56.96;100426.59;1733314;82;20983;-68
2022/04/10 13:31:29;;;;;;;11.08;4.25;;;;;;;7.86;56.84;100429.96;1733193;82;21014;-68
2022/04/10 13:33:55;;;;;;;13.65;5.72;;;;;;;7.89;56.41;100445.58;1733311;82;20967;-68
2022/04/10 13:36:21;;;;;;;9.45;2.92;;;;;;;7.89;56.41;100445.58;1733289;82;21034;-68
2022/04/10 13:38:47;;;;;;;4.62;1.92;;;;;;;7.27;56.32;100480.90;1733418;82;21023;-68
2022/04/10 13:41:13;;;;;;;8.20;4.55;;;;;;;6.30;56.60;100491.38;1732815;82;20979;-68
2022/04/10 13:43:39;;;;;;;9.73;3.20;;;;;;;5.72;57.01;100501.56;1733421;82;21058;-68
2022/04/10 13:46:05;;;;;;;27.67;11.75;;;;;;;5.34;57.41;100508.43;1733212;82;21018;-68
2022/04/10 13:48:31;;;;;;;13.48;5.25;;;;;;;4.99;57.86;100521.21;1732973;82;21041;-68
2022/04/10 13:50:58;;;;;;;18.75;7.53;;;;;;;4.76;58.32;100528.91;1733136;82;21178;-68
2022/04/10 13:53:24;;;;;;;12.35;4.55;;;;;;;4.61;58.73;100526.27;1733413;82;20991;-68
2022/04/10 13:55:50;;;;;;;22.07;7.20;;;;;;;4.37;59.33;100527.33;1733251;82;21034;-68
2022/04/10 13:58:16;;;;;;;8.28;3.33;;;;;;;4.12;59.81;100534.78;1733294;82;21391;-68
2022/04/10 14:00:42;;;;;;;5.55;1.72;;;;;;;3.94;60.45;100517.33;1733391;82;20999;-68
2022/04/10 14:03:08;;;;;;;7.47;2.52;;;;;;;3.87;60.84;100503.77;1732513;82;21142;-68
2022/04/10 14:05:34;;;;;;;5.33;2.65;;;;;;;3.93;61.21;100504.61;1732927;82;21089;-68
2022/04/10 14:08:01;;;;;;;7.37;2.58;;;;;;;4.02;61.60;100493.29;1733475;82;21010;-68
2022/04/10 14:10:27;;;;;;;4.72;2.77;;;;;;;4.30;61.93;100488.36;1733348;82;21488;-68
2022/04/10 14:12:53;;;;;;;9.88;2.42;;;;;;;4.72;62.20;100483.91;1733406;82;21546;-68
2022/04/10 14:15:19;;;;;;;6.37;2.22;;;;;;;5.08;62.46;100480.77;1733025;82;21116;-68
2022/04/10 14:17:45;;;;;;;10.55;4.25;;;;;;;5.24;62.68;100481.09;1733190;82;21422;-68
2022/04/10 14:20:12;;;;;;;7.03;2.75;;;;;;;5.34;62.90;100475.86;1732897;82;21014;-68
2022/04/10 14:22:38;;;;;;;2.55;1.45;;;;;;;5.32;63.10;100468.05;1733318;82;21098;-67
2022/04/10 14:25:05;;;;;;;5.87;3.00;;;;;;;5.33;63.29;100475.02;1732860;82;20983;-68
2022/04/10 14:27:31;;;;;;;6.65;1.47;;;;;;;5.52;63.48;100476.89;1733394;82;21136;-68
2022/04/10 14:29:57;;;;;;;4.65;1.87;;;;;;;5.66;63.62;100482.27;1733213;82;21059;-68
2022/04/10 14:32:23;;;;;;;5.30;2.62;;;;;;;5.78;63.77;100479.84;1733176;82;20974;-68
2022/04/10 14:34:49;;;;;;;6.10;2.08;;;;;;;5.91;63.92;100481.79;1733237;82;21506;-67
2022/04/10 14:37:15;;;;;;;5.30;2.22;;;;;;;6.04;64.08;100478.38;1733283;82;21452;-68
2022/04/10 14:39:41;;;;;;;6.90;3.40;;;;;;;6.13;64.16;100480.66;1733634;82;21761;-68
2022/04/10 14:42:07;;;;;;;10.15;5.10;;;;;;;6.10;64.31;100485.75;1732936;82;21011;-68
2022/04/10 14:44:33;;;;;;;17.92;8.80;;;;;;;6.17;64.45;100484.70;1733232;82;21050;-68
2022/04/10 14:47:00;;;;;;;7.33;3.00;;;;;;;6.27;64.51;100487.70;1711908;82;22054;-68
2022/04/10 14:49:26;;;;;;;11.95;5.15;;;;;;;6.31;64.58;100486.45;1712899;82;21440;-68
2022/04/10 14:51:52;;;;;;;5.65;1.90;;;;;;;6.34;64.68;100490.12;1714853;82;21110;-68
2022/04/10 14:54:18;;;;;;;10.88;4.47;;;;;;;6.42;64.79;100490.75;1717821;83;21488;-68
2022/04/10 14:56:44;;;;;;;8.28;3.83;;;;;;;6.53;64.85;100487.47;1702387;82;21095;-68
2022/04/10 14:59:12;;;;;;;10.38;5.20;;;;;;;6.63;64.89;100487.94;1693339;84;21894;-68
2022/04/10 15:01:38;;;;;;;8.05;2.85;;;;;;;6.76;64.94;100477.86;1700925;84;21089;-68
2022/04/10 15:04:05;;;;;;;20.00;7.72;;;;;;;6.93;64.93;100478.45;1705681;82;21589;-68
2022/04/10 15:06:31;;;;;;;14.45;5.78;;;;;;;7.05;64.90;100473.30;1709602;82;21043;-67
2022/04/10 15:08:57;;;;;;;19.73;8.50;;;;;;;6.99;64.81;100474.73;1710672;82;21002;-68
2022/04/10 15:11:23;;;;;;;24.65;10.45;;;;;;;6.86;64.76;100468.89;1709229;83;21046;-68
2022/04/10 15:13:49;;;;;;;23.87;9.80;;;;;;;6.85;64.73;100459.78;1712237;83;21023;-68
2022/04/10 15:16:15;;;;;;;17.05;5.60;;;;;;;6.82;64.70;100460.08;1708841;82;21073;-68
2022/04/10 15:18:41;;;;;;;11.50;5.28;;;;;;;6.99;64.71;100452.69;1711849;83;21566;-69
2022/04/10 15:21:07;;;;;;;14.00;7.17;;;;;;;7.21;64.68;100453.64;1713679;83;21487;-68
2022/04/10 15:23:33;;;;;;;9.88;4.78;;;;;;;7.36;64.54;100453.47;1712509;82;21074;-68
2022/04/10 15:25:59;;;;;;;7.42;3.17;;;;;;;7.31;64.33;100450.94;1714322;83;21027;-68
2022/04/10 15:28:27;;;;;;;8.03;3.35;;;;;;;7.18;64.06;100446.47;1711072;83;21671;-68
2022/04/10 15:30:52;;;;;;;9.55;3.70;;;;;;;7.18;63.91;100441.98;1712741;83;21098;-68
2022/04/10 15:33:19;;;;;;;12.37;4.42;;;;;;;7.33;63.69;100451.61;1713937;82;21080;-68
2022/04/10 15:35:47;;;;;;;8.10;4.08;;;;;;;7.47;63.40;100453.27;1712915;83;21565;-68
2022/04/10 15:38:14;;;;;;;9.90;3.70;;;;;;;7.64;63.15;100453.44;1714936;82;21087;-68
2022/04/10 15:40:40;;;;;;;9.90;4.30;;;;;;;7.78;62.85;100456.42;1714034;83;21831;-68
2022/04/10 15:43:07;;;;;;;10.35;3.72;;;;;;;7.86;62.55;100463.64;1711944;83;21050;-68
2022/04/10 15:45:33;;;;;;;7.65;2.58;;;;;;;7.74;62.17;100463.02;1712505;82;21081;-68
2022/04/10 15:48:07;;;;;;;15.03;5.78;;;;;;;7.56;61.88;100463.50;1712548;83;21058;-68
2022/04/10 15:50:27;;;;;;;16.85;7.75;;;;;;;7.49;61.72;100468.55;1710887;83;21051;-68
2022/04/10 15:52:53;;;;;;;10.80;4.67;;;;;;;7.45;61.51;100476.48;1714558;83;21094;-68
2022/04/10 15:55:21;;;;;;;8.70;3.98;;;;;;;7.52;61.35;100468.27;1710535;83;21050;-68
2022/04/10 15:57:49;;;;;;;18.23;7.10;;;;;;;7.63;61.16;100478.33;1713788;83;21085;-68
2022/04/10 16:00:16;;;;;;;11.35;4.90;;;;;;;7.73;61.04;100468.48;1710837;82;21069;-68
2022/04/10 16:02:42;;;;;;;10.10;4.40;;;;;;;7.80;60.79;100480.17;1711538;83;21070;-68
2022/04/10 16:05:12;;;;;;;9.58;4.30;;;;;;;7.78;60.37;100474.16;1711270;82;21562;-68
2022/04/10 16:07:38;;;;;;;11.93;4.58;;;;;;;7.75;60.18;100481.11;1710887;83;21079;-68
2022/04/10 16:10:06;;;;;;;18.02;5.72;;;;;;;7.71;59.96;100470.44;1713233;83;21005;-68
2022/04/10 16:12:33;;;;;;;13.30;5.05;;;;;;;7.63;59.56;100471.70;1713012;83;21062;-68
2022/04/10 16:14:59;;;;;;;16.93;7.67;;;;;;;7.65;59.43;100476.36;1712953;83;21067;-68
2022/04/10 16:17:25;;;;;;;15.83;6.78;;;;;;;7.74;59.35;100478.94;1714081;82;21716;-68
2022/04/10 16:19:51;;;;;;;12.80;5.45;;;;;;;7.81;59.16;100482.66;1719709;82;21073;-68
2022/04/10 16:22:17;;;;;;;13.78;5.25;;;;;;;7.83;59.02;100483.37;1720181;82;20919;-68
2022/04/10 16:24:43;;;;;;;10.13;4.00;;;;;;;7.86;58.93;100487.53;1715439;82;20864;-68
2022/04/10 16:30:08;;;;;;;24.98;10.85;;;;;;;7.80;58.73;100480.17;1721149;82;21106;-68
2022/04/10 16:32:41;;;;;;;15.48;7.00;;;;;;;7.80;58.66;100482.83;1716398;82;21066;-68
2022/04/10 16:35:17;;;;;;;16.55;5.45;;;;;;;7.67;58.52;100480.52;1719813;82;21059;-68
2022/04/10 16:37:41;;;;;;;31.52;9.53;;;;;;;7.51;58.39;100495.78;1720438;82;21015;-68
2022/04/10 16:40:09;;;;;;;14.00;6.00;;;;;;;7.39;58.30;100492.13;1720052;82;21506;-68
2022/04/10 16:42:35;;;;;;;25.60;10.38;;;;;;;7.27;58.21;100494.16;1721040;82;21689;-68
2022/04/10 16:45:02;;;;;;;15.13;7.55;;;;;;;7.19;58.14;100500.67;1719801;82;21680;-67
2022/04/10 16:47:28;;;;;;;14.00;5.10;;;;;;;7.11;58.10;100499.23;1722729;82;21094;-68
2022/04/10 16:49:55;;;;;;;15.78;5.53;;;;;;;7.07;58.08;100499.20;1720377;82;21055;-68
2022/04/10 16:52:22;;;;;;;32.88;15.15;;;;;;;7.04;58.07;100505.61;1716155;82;21078;-68
2022/04/10 16:54:49;;;;;;;37.45;14.18;;;;;;;7.03;58.05;100505.77;1727758;82;21082;-68
2022/04/10 16:57:16;;;;;;;20.25;9.48;;;;;;;7.03;58.08;100515.05;1706533;82;21071;-68
2022/04/10 16:59:44;;;;;;;18.80;7.28;;;;;;;7.01;58.02;100529.77;1715072;82;21093;-68
2022/04/10 17:02:11;;;;;;;17.73;7.45;;;;;;;6.89;57.90;100545.51;1716275;82;21106;-68
2022/04/10 17:04:39;;;;;;;17.15;5.70;;;;;;;6.45;57.93;100546.94;1721646;82;21078;-67
2022/04/10 17:07:06;;;;;;;21.35;7.83;;;;;;;6.14;58.11;100554.66;1721665;82;21410;-67
2022/04/10 17:09:32;;;;;;;14.47;6.60;;;;;;;5.91;58.31;100554.57;1706850;82;21517;-67
2022/04/10 17:11:58;;;;;;;26.57;11.10;;;;;;;5.78;58.49;100556.58;1731741;82;21106;-67
2022/04/10 17:14:24;;;;;;;29.45;12.00;;;;;;;5.67;58.66;100552.23;1724475;82;21045;-67
2022/04/10 17:16:50;;;;;;;13.90;6.10;;;;;;;5.63;58.78;100556.63;1721557;82;21562;-67
2022/04/10 17:22:09;;;;;;;15.48;7.00;;;;;;;5.59;59.09;100556.05;1837107;77;22663;-67
2022/04/10 17:24:41;;;;;;;33.78;14.55;;;;;;;5.49;59.22;100567.90;1825692;78;21077;-67
2022/04/10 17:27:07;;;;;;;27.95;11.85;;;;;;;5.43;59.36;100592.24;1805941;78;21117;-67
2022/04/10 17:29:33;;;;;;;75.28;39.60;;;;;;;5.35;59.50;100599.14;1796669;78;21021;-67
2022/04/10 17:31:59;;;;;;;36.93;18.10;;;;;;;5.26;59.69;100602.59;1814596;77;20971;-67
2022/04/10 17:34:25;;;;;;;30.97;13.53;;;;;;;5.19;59.85;100600.11;1811568;78;21022;-67
2022/04/10 17:36:51;;;;;;;20.35;7.58;;;;;;;5.14;60.05;100592.56;1804905;78;21498;-67
2022/04/10 17:39:17;;;;;;;22.02;9.25;;;;;;;5.12;60.20;100595.84;1811930;78;21108;-67
2022/04/10 17:41:44;;;;;;;43.75;18.85;;;;;;;5.09;60.35;100600.06;1798566;78;20978;-67
2022/04/10 17:44:11;;;;;;;29.63;14.20;;;;;;;5.04;60.52;100602.25;1823499;77;20958;-67
2022/04/10 17:46:37;;;;;;;37.85;16.62;;;;;;;4.98;60.66;100597.48;1799417;78;21026;-67
2022/04/10 17:49:04;;;;;;;25.35;12.98;;;;;;;4.86;60.78;100592.74;1819985;78;21490;-67
2022/04/10 17:51:29;;;;;;;23.27;10.45;;;;;;;4.82;61.00;100603.72;1822814;78;21856;-67
2022/04/10 17:53:56;;;;;;;26.57;11.90;;;;;;;4.73;61.16;100602.66;1796453;78;20864;-67
2022/04/10 17:56:22;;;;;;;81.28;36.15;;;;;;;4.66;61.36;100604.62;1805783;78;21003;-67
2022/04/10 17:58:48;;;;;;;127.00;61.68;;;;;;;4.61;61.54;100604.98;1775457;78;20983;-67
2022/04/10 18:01:15;;;;;;;94.92;48.52;;;;;;;4.58;61.72;100612.33;1772457;78;20916;-67
2022/04/10 18:03:41;;;;;;;94.45;40.28;;;;;;;4.53;61.87;100612.25;1785046;78;21483;-67
2022/04/10 18:06:07;;;;;;;123.92;52.10;;;;;;;4.48;62.08;100617.05;1758762;80;21545;-67
2022/04/10 18:08:33;;;;;;;96.53;45.35;;;;;;;4.43;62.26;100621.86;1758020;79;21154;-67
2022/04/10 18:11:00;;;;;;;100.22;43.42;;;;;;;4.36;62.45;100618.05;1752544;80;21458;-67
2022/04/10 18:13:26;;;;;;;97.72;42.23;;;;;;;4.32;62.59;100616.64;1753981;80;21086;-67
2022/04/10 18:15:52;;;;;;;41.68;19.00;;;;;;;4.23;62.79;100625.29;1747219;80;21087;-67
2022/04/10 18:18:19;;;;;;;30.20;14.18;;;;;;;4.17;62.94;100632.39;1741230;80;21735;-67
2022/04/10 18:20:46;;;;;;;40.28;17.55;;;;;;;4.11;63.12;100628.94;1745649;80;22531;-67
2022/04/10 18:23:12;;;;;;;60.23;26.33;;;;;;;4.05;63.29;100628.59;1722505;81;21638;-67
2022/04/10 18:25:39;;;;;;;35.70;16.82;;;;;;;4.02;63.46;100634.92;1751193;80;21062;-66
2022/04/10 18:28:05;;;;;;;26.85;13.98;;;;;;;3.97;63.63;100631.84;1768165;80;21151;-67
2022/04/10 18:30:32;;;;;;;30.90;17.25;;;;;;;3.95;63.80;100637.22;1742115;80;21094;-67
2022/04/10 18:33:02;;;;;;;32.38;15.60;;;;;;;3.97;63.96;100639.75;1754499;80;21551;-66
2022/04/10 18:35:28;;;;;;;32.48;15.70;;;;;;;4.02;64.09;100646.33;1718882;81;21070;-67
2022/04/10 18:37:54;;;;;;;35.48;17.67;;;;;;;4.12;64.25;100646.42;1752725;80;21082;-67
2022/04/10 18:40:20;;;;;;;28.77;14.20;;;;;;;4.22;64.35;100653.95;1734578;81;22032;-67
2022/04/10 18:42:46;;;;;;;36.28;18.70;;;;;;;4.29;64.46;100659.10;1731871;81;21085;-67
2022/04/10 18:45:12;;;;;;;25.82;11.78;;;;;;;4.34;64.60;100659.58;1753344;80;21062;-67
2022/04/10 18:47:39;;;;;;;272.00;93.90;;;;;;;4.37;64.75;100674.33;1752669;80;21084;-67
2022/04/10 18:50:07;;;;;;;39.70;15.60;;;;;;;4.32;64.94;100673.88;1727641;81;21089;-67
2022/04/10 18:52:33;;;;;;;25.30;8.28;;;;;;;4.18;65.20;100656.52;1724462;82;21261;-67
2022/04/10 18:54:59;;;;;;;12.20;5.12;;;;;;;4.06;65.44;100660.12;1730279;81;21776;-67
2022/04/10 18:57:25;;;;;;;15.90;7.83;;;;;;;3.99;65.68;100657.61;1724963;81;21037;-67